Pagina principale
METAR-TAF:

METAR-TAF

Aeroporti :

Aeroporto di Dakar-Léopold Sedar Senghor

Dakar, Senegal

latitudine: 14-44N, longitudine: 017-30W, altezza: 27 m

Osservazione

Il bollettino è stato emesso 39 minuti fa, alle 18:00 UTC
Vento 14 kt da nord
Temperature 23°C
Umidità 73%
Pressione 1012 hPa
Visibilità 10 km o più
nessuna nube inferiore a 1500 m e nessun cumulonembo

METAR: GOOY 191800Z 36014KT CAVOK 23/18 Q1012

Ora: 18:39 (18:39 UTC)

Previsione

Il bollettino è stato emesso 1 ora e 9 minuti fa, alle 17:30 UTC
Previsione valida dal 19 alle 18 UTC al 20 alle 24 UTC
Vento 12 kt da nord
Visibilità 10 km o più
Nubi sparse ad un'altezza di 1000 ft

TAF: GOOY 191730Z 1918/2024 36012KT 9999 SCT010

Osservazioni e previsioni meteorologiche di più di 4000 aeroporti (messaggi METAR e TAF).

Le stazioni disponibili sono rappresentate dai dischi gialli e rossi sulla carta.

Puntare il mouse per vedere il nome della stazione.

Clicca sopra per visualizzare le osservazioni e previsioni meteorologiche.

Per cambiare la mappa : fare clic sui pulsanti verdi con una croce nera per ingrandire, il pulsante verde con un trattino per diminuire, o sulla freccia verde per le mappe adiacenti.


METAR-TAF: